Flight Track Log - Related Links

Times and Time Zones

All times are in EDT time to prevent confusion due to time zone crossing. See the ASQ4692 flight status page for this flight to view local times or setup timezone preferences in your user account.

Time Position Orientation Groundspeed Altitude Reporting Facility
EDT Latitude Longitude Course Direction KTS MPH feet Rate Location/Type
Thu 11:54:07 AM 39.7000 -86.3000 207° Southwest 153 176 1,500  Level Indianapolis TRACON
Thu 11:54:43 AM 39.6667 -86.3167 201° Southwest 168 193 2,500 1,653 Climbing Indianapolis TRACON
Thu 11:55:45 AM 39.6231 -86.3503 211° Southwest 192 221 4,200 2,032 Climbing Indianapolis Center
Thu 11:56:47 AM 39.5606 -86.3853 203° Southwest 234 269 6,700 2,226 Climbing Indianapolis Center
Thu 11:57:00 AM 39.3541 -86.4810 204° Southwest  Level FlightAware Approximate
Thu 11:57:49 AM 39.4989 -86.4194 203° Southwest 239 275 8,800  Level Indianapolis Center
Thu 11:58:00 AM 39.2619 -86.5275 201° Southwest  Level FlightAware Approximate
Thu 11:58:51 AM 39.4328 -86.4553 203° Southwest 252 290 10,700  Level Indianapolis Center
Thu 11:59:00 AM 39.1702 -86.5754 207° Southwest  Level FlightAware Approximate
Thu 11:59:53 AM 39.3442 -86.5033 203° Southwest 293 337 11,400  Level Indianapolis Center
Thu 12:00:55 PM 39.2581 -86.5503 203° Southwest 326 375 12,600 1,258 Climbing Indianapolis Center
Thu 12:01:57 PM 39.1711 -86.5981 203° Southwest 335 386 14,000 1,220 Climbing Indianapolis Center
Thu 12:02:58 PM 39.0861 -86.6464 204° Southwest 342 394 15,100 1,122 Climbing Indianapolis Center
Thu 12:04:00 PM 38.9975 -86.6997 205° Southwest 348 400 16,300 1,113 Climbing Indianapolis Center
Thu 12:05:02 PM 38.9083 -86.7533 205° Southwest 351 404 17,400 774 Climbing Indianapolis Center
Thu 12:06:04 PM 38.8161 -86.8083 205° Southwest 360 414 17,900 823 Climbing Indianapolis Center
Thu 12:07:06 PM 38.7031 -86.8753 205° Southwest 370 426 19,100 968 Climbing Indianapolis Center
Thu 12:08:08 PM 38.6081 -86.9314 205° Southwest 374 430 19,900 829 Climbing Indianapolis Center
Thu 12:09:09 PM 38.5117 -86.9933 207° Southwest 385 443 20,800 829 Climbing Indianapolis Center
Thu 12:10:11 PM 38.4403 -87.0861 226° Southwest 369 425 21,600 968 Climbing Indianapolis Center
Thu 12:11:13 PM 38.3697 -87.1778 226° Southwest 370 426 22,800 1,452 Climbing Indianapolis Center
Thu 12:12:15 PM 38.2889 -87.2861 226° Southwest 356 410 24,600 1,415 Climbing Indianapolis Center
Thu 12:13:16 PM 38.2222 -87.3750 226° Southwest 348 400 25,700 976 Climbing Indianapolis Center
Thu 12:14:18 PM 38.1561 -87.4628 226° Southwest 346 398 26,600 871 Climbing Indianapolis Center
Thu 12:15:20 PM 38.0894 -87.5494 226° Southwest 342 394 27,500 919 Climbing Indianapolis Center
Thu 12:16:22 PM 38.0236 -87.6367 226° Southwest 341 392 28,500 968 Climbing Indianapolis Center
Thu 12:17:24 PM 37.9581 -87.7228 226° Southwest 338 389 29,500 976 Climbing Indianapolis Center
Thu 12:18:25 PM 37.8950 -87.8100 228° Southwest 336 387 30,500 976 Climbing Indianapolis Center
Thu 12:19:27 PM 37.8331 -87.8986 229° Southwest 334 384 31,500 1,065 Climbing Indianapolis Center
Thu 12:20:29 PM 37.7589 -88.0056 229° Southwest 335 386 32,700 1,065 Climbing Indianapolis Center
Thu 12:21:31 PM 37.6969 -88.0956 229° Southwest 336 387 33,700 634 Climbing Indianapolis Center
Thu 12:22:32 PM 37.6397 -88.1772 229° Southwest 337 388 34,000 184 Climbing Indianapolis Center
Thu 12:23:09 PM 37.5953 -88.2500 232° Southwest 342 394 34,000  Level Memphis Center
Thu 12:23:34 PM 37.5692 -88.2808 223° Southwest 358 412 34,000  Level Indianapolis Center
Thu 12:24:36 PM 37.4994 -88.3808 229° Southwest 377 434 34,000  Level Indianapolis Center
Thu 12:25:09 PM 37.4589 -88.4497 233° Southwest 371 427 34,000  Level Memphis Center
Thu 12:26:09 PM 37.3853 -88.5481 227° Southwest 377 434 34,000 250 Level Memphis Center
Thu 12:27:09 PM 37.3181 -88.6461 229° Southwest 376 433 34,500  Climbing Memphis Center
Thu 12:28:09 PM 37.2483 -88.7414 227° Southwest 381 438 34,000 -250 Descending Memphis Center
Thu 12:29:09 PM 37.1831 -88.8389 230° Southwest 381 438 34,000 50 Level Memphis Center
Thu 12:30:09 PM 37.1133 -88.9314 227° Southwest 376 433 34,100 550 Climbing Memphis Center
Thu 12:31:09 PM 37.0456 -89.0261 228° Southwest 369 425 35,100 950 Climbing Memphis Center
Thu 12:32:09 PM 36.9819 -89.1156 228° Southwest 369 425 36,000 450 Climbing Memphis Center
Thu 12:33:09 PM 36.9161 -89.2075 228° Southwest 369 425 36,000  Level Memphis Center
Thu 12:34:09 PM 36.8481 -89.3017 228° Southwest 369 425 36,000  Level Memphis Center
Thu 12:35:09 PM 36.7803 -89.3983 229° Southwest 369 425 36,000  Level Memphis Center
Thu 12:36:09 PM 36.7122 -89.4950 229° Southwest 369 425 36,000  Level Memphis Center
Thu 12:37:09 PM 36.6439 -89.5864 227° Southwest 369 425 36,000  Level Memphis Center
Thu 12:38:09 PM 36.5758 -89.6800 228° Southwest 369 425 36,000  Level Memphis Center
Thu 12:39:09 PM 36.5075 -89.7708 227° Southwest 369 425 36,000  Level Memphis Center
Thu 12:40:09 PM 36.4369 -89.8669 228° Southwest 369 425 36,000  Level Memphis Center
Thu 12:41:09 PM 36.3664 -89.9600 227° Southwest 369 425 36,000  Level Memphis Center
Thu 12:42:09 PM 36.2958 -90.0558 228° Southwest 369 425 36,000  Level Memphis Center
Thu 12:43:09 PM 36.2253 -90.1536 228° Southwest 374 430 36,000  Level Memphis Center
Thu 12:44:09 PM 36.1522 -90.2464 226° Southwest 374 430 36,000  Level Memphis Center
Thu 12:45:09 PM 36.0856 -90.3392 228° Southwest 369 425 36,000  Level Memphis Center
Thu 12:46:09 PM 36.0169 -90.4314 227° Southwest 369 425 36,000  Level Memphis Center
Thu 12:47:09 PM 35.9481 -90.5236 227° Southwest 369 425 36,000  Level Memphis Center
Thu 12:48:09 PM 35.8789 -90.6131 226° Southwest 369 425 36,000  Level Memphis Center
Thu 12:49:09 PM 35.8058 -90.7078 226° Southwest 369 425 36,000  Level Memphis Center
Thu 12:50:09 PM 35.7408 -90.7994 229° Southwest 369 425 36,000  Level Memphis Center
Thu 12:51:09 PM 35.6736 -90.8911 228° Southwest 369 425 36,000  Level Memphis Center
Thu 12:52:09 PM 35.6044 -90.9853 228° Southwest 369 425 36,000  Level Memphis Center
Thu 12:53:09 PM 35.5331 -91.0792 227° Southwest 375 432 36,000  Level Memphis Center
Thu 12:54:09 PM 35.4636 -91.1728 228° Southwest 380 437 36,000  Level Memphis Center
Thu 12:55:09 PM 35.3922 -91.2636 226° Southwest 374 430 36,000  Level Memphis Center
Thu 12:56:09 PM 35.3206 -91.3547 226° Southwest 369 425 36,000  Level Memphis Center
Thu 12:57:09 PM 35.2508 -91.4478 227° Southwest 369 425 36,000  Level Memphis Center
Thu 12:58:09 PM 35.1750 -91.5333 223° Southwest 375 432 36,000  Level Memphis Center
Thu 12:59:09 PM 35.0661 -91.5722 196° South 386 444 36,000  Level Memphis Center
Thu 01:00:09 PM 34.9447 -91.6061 193° South 423 487 36,000  Level Memphis Center
Thu 01:01:09 PM 34.8297 -91.6422 194° South 429 494 36,000  Level Memphis Center
Thu 01:02:09 PM 34.7167 -91.6733 193° South 429 494 36,000  Level Memphis Center
Thu 01:03:09 PM 34.6142 -91.7097 196° South 424 488 36,000  Level Memphis Center
Thu 01:04:09 PM 34.5133 -91.7711 207° Southwest 414 476 36,000  Level Memphis Center
Thu 01:05:09 PM 34.4167 -91.8300 207° Southwest 402 463 36,000  Level Memphis Center
Thu 01:06:09 PM 34.3072 -91.8961 207° Southwest 402 463 36,000  Level Memphis Center
Thu 01:07:09 PM 34.2064 -91.9569 207° Southwest 402 463 36,000  Level Memphis Center
Thu 01:08:09 PM 34.1056 -92.0153 206° Southwest 402 463 36,000  Level Memphis Center
Thu 01:09:09 PM 34.0044 -92.0736 206° Southwest 408 470 36,000  Level Memphis Center
Thu 01:10:42 PM 33.8589 -92.1586 206° Southwest 389 448 36,000  Level Fort Worth Center
Thu 01:11:42 PM 33.7547 -92.2150 204° Southwest 396 456 36,000  Level Fort Worth Center
Thu 01:12:42 PM 33.6508 -92.2733 205° Southwest 408 470 36,000  Level Fort Worth Center
Thu 01:13:42 PM 33.5553 -92.3364 209° Southwest 414 476 36,000  Level Fort Worth Center
Thu 01:14:43 PM 33.4428 -92.3925 203° Southwest 414 476 36,000  Level Fort Worth Center
Thu 01:15:42 PM 33.3356 -92.4286 196° South 414 476 36,000  Level Fort Worth Center
Thu 01:16:42 PM 33.2178 -92.4525 190° South 421 484 36,000  Level Fort Worth Center
Thu 01:17:42 PM 33.1017 -92.4739 189° South 428 493 36,000  Level Fort Worth Center
Thu 01:18:42 PM 32.9814 -92.4931 188° South 428 493 36,000  Level Fort Worth Center
Thu 01:20:47 PM 32.7361 -92.5394 189° South 430 495 36,000  Level Houston Center
Thu 01:21:49 PM 32.6167 -92.5611 189° South 433 498 36,000  Level Houston Center
Thu 01:22:51 PM 32.4953 -92.5819 188° South 442 509 36,000  Level Houston Center
Thu 01:23:53 PM 32.3506 -92.6067 188° South 440 506 36,000  Level Houston Center
Thu 01:24:56 PM 32.2281 -92.6289 189° South 442 509 36,000  Level Houston Center
Thu 01:25:57 PM 32.1081 -92.6508 189° South 439 505 36,000  Level Houston Center
Thu 01:27:00 PM 31.9881 -92.6742 189° South 437 503 36,000  Level Houston Center
Thu 01:28:02 PM 31.8989 -92.7486 215° Southwest 399 459 36,000  Level Houston Center
Thu 01:29:04 PM 31.8136 -92.8289 219° Southwest 393 452 36,000  Level Houston Center
Thu 01:30:06 PM 31.7142 -92.9289 221° Southwest 392 451 36,000  Level Houston Center
Thu 01:31:08 PM 31.6292 -93.0106 219° Southwest 395 455 36,000  Level Houston Center
Thu 01:32:10 PM 31.5447 -93.0914 219° Southwest 392 451 36,000  Level Houston Center
Thu 01:33:13 PM 31.4578 -93.1731 219° Southwest 398 458 36,000  Level Houston Center
Thu 01:34:15 PM 31.3725 -93.2547 219° Southwest 399 459 36,000 -97 Level Houston Center
Thu 01:35:17 PM 31.2722 -93.3522 220° Southwest 401 461 35,800 -581 Descending Houston Center
Thu 01:36:19 PM 31.1842 -93.4350 219° Southwest 397 457 34,800 -1,065 Descending Houston Center
Thu 01:37:21 PM 31.0975 -93.5183 219° Southwest 403 464 33,600 -1,548 Descending Houston Center
Thu 01:38:23 PM 31.0114 -93.5997 219° Southwest 402 463 31,600 -2,112 Descending Houston Center
Thu 01:39:26 PM 30.9228 -93.6836 219° Southwest 409 471 29,200 -2,544 Descending Houston Center
Thu 01:40:28 PM 30.8153 -93.7856 219° Southwest 416 479 26,300 -2,419 Descending Houston Center
Thu 01:41:30 PM 30.7233 -93.8725 219° Southwest 427 491 24,200 -1,984 Descending Houston Center
Thu 01:42:32 PM 30.6311 -93.9583 219° Southwest 428 493 22,200 -1,984 Descending Houston Center
Thu 01:43:34 PM 30.5417 -94.0422 219° Southwest 422 486 20,100 -2,032 Descending Houston Center
Thu 01:44:36 PM 30.4533 -94.1256 219° Southwest 415 478 18,000 -2,419 Descending Houston Center
Thu 01:45:38 PM 30.3486 -94.2219 218° Southwest 407 468 15,100 -2,755 Descending Houston Center
Thu 01:46:14 PM 30.2964 -94.2717 219° Southwest 382 440 13,500 -2,381 Descending Houston Center
Thu 01:46:41 PM 30.2683 -94.2964 217° Southwest 385 443 12,600 -1,343 Descending Houston Center
Thu 01:47:21 PM 30.2136 -94.3481 219° Southwest 321 369 12,000 -677 Descending Houston Center
Thu 01:47:43 PM 30.2017 -94.3667 233° Southwest 339 390 11,900 -857 Descending Houston Center
Thu 01:48:17 PM 30.1861 -94.4339 255° West 318 366 11,200 -968 Descending Houston Center
Thu 01:48:45 PM 30.1797 -94.4653 257° West 322 371 10,900 -1,000 Descending Houston Center
Thu 01:49:23 PM 30.1656 -94.5453 258° West 318 366 10,100 -871 Descending Houston Center
Thu 01:49:47 PM 30.1622 -94.5739 262° West 318 366 10,000 -107 Descending Houston Center
Thu 01:50:19 PM 30.1492 -94.6369 257° West 320 368 10,000  Level Houston Center
Thu 01:50:49 PM 30.1453 -94.6728 263° West 318 366 10,000  Level Houston Center
Thu 01:51:20 PM 30.1319 -94.7406 257° West 317 365 10,000  Level Houston Center
Thu 01:51:51 PM 30.1278 -94.7725 261° West 318 366 10,000 98 Level Houston Center
Thu 01:52:21 PM 30.1142 -94.8394 257° West 316 364 10,100  Climbing Houston Center
Thu 01:52:53 PM 30.1078 -94.8914 262° West 317 365 10,000 -98 Descending Houston Center
Thu 01:53:22 PM 30.1047 -94.9397 266° West 305 351 10,000 -667 Level Houston Center
Thu 01:53:56 PM 30.1064 -94.9850 272° West 291 335 9,300 -1,672 Descending Houston Center
Thu 01:54:23 PM 30.1050 -95.0317 268° West 271 312 8,300 -2,032 Descending Houston Center
Thu 01:54:58 PM 30.1064 -95.0719 272° West 276 318 7,200 -1,964 Descending Houston Center
Thu 01:55:18 PM 30.1061 -95.1111 270° West 277 319 6,500 -1,065 Descending Houston Center
Thu 01:56:00 PM 30.1064 -95.1575 270° West 271 312 6,100 -441 Descending Houston Center
Thu 01:56:26 PM 30.1064 -95.2028 270° West 236 272 6,000 -97 Descending Houston Center
Thu 01:57:02 PM 30.1072 -95.2347 272° West 247 284 6,000 91 Level Houston Center
Thu 01:57:32 PM 30.1056 -95.2875 268° West 239 275 6,100  Climbing Houston Center
Thu 01:58:04 PM 30.1072 -95.3247 273° West 237 273 6,000 -581 Descending Houston Center
Thu 01:58:34 PM 30.1061 -95.3622 268° West 236 272 5,500 -1,258 Descending Houston Center
Thu 01:59:06 PM 30.1075 -95.3994 272° West 235 270 4,700 -1,636 Descending Houston Center
Thu 01:59:29 PM 30.1064 -95.4322 268° West 243 280 4,000 -1,333 Descending Houston Center
Thu 02:00:09 PM 30.1058 -95.4756 269° West 237 273 3,300 -1,050 Descending Houston Center

Login

Don't have an account? Register now (free) for customized features, flight alerts, and more!